createdAt,value
2022-12-04T00:00:17.738Z,99599.75
2022-12-04T00:01:07.582Z,99591.50
2022-12-04T00:01:49.391Z,99575.25
2022-12-04T00:02:31.334Z,99592.31
2022-12-04T00:03:13.130Z,99594.53
2022-12-04T00:04:00.820Z,99584.75
2022-12-04T00:04:42.557Z,99573.31
2022-12-04T00:05:24.397Z,99591.47
2022-12-04T00:06:15.089Z,99576.38
2022-12-04T00:06:58.905Z,99593.28
2022-12-04T00:07:41.221Z,99568.22
2022-12-04T00:08:22.988Z,99595.06
2022-12-04T00:09:05.635Z,99566.72
2022-12-04T00:09:47.411Z,99582.94
2022-12-04T00:10:29.334Z,99591.91
2022-12-04T00:11:13.247Z,99591.75
2022-12-04T00:11:54.950Z,99583.09
2022-12-04T00:12:36.817Z,99580.19
2022-12-04T00:13:19.335Z,99588.16
2022-12-04T00:14:06.906Z,99589.81
2022-12-04T00:15:23.873Z,99601.25
2022-12-04T00:15:52.656Z,99603.06
2022-12-04T00:16:35.402Z,99591.91
2022-12-04T00:17:17.228Z,99571.81
2022-12-04T00:17:59.015Z,99568.63
2022-12-04T00:18:41.064Z,99570.28
2022-12-04T00:19:22.890Z,99584.88
2022-12-04T00:20:05.276Z,99572.75
2022-12-04T00:20:46.969Z,99587.66
2022-12-04T00:21:28.761Z,99596.44
2022-12-04T00:22:10.798Z,99585.56
2022-12-04T00:22:53.041Z,99573.47
2022-12-04T00:23:36.190Z,99588.03
2022-12-04T00:24:17.962Z,99584.31
2022-12-04T00:24:59.724Z,99556.09
2022-12-04T00:25:41.684Z,99580.03
2022-12-04T00:26:27.166Z,99585.69
2022-12-04T00:27:09.128Z,99601.41
2022-12-04T00:27:50.896Z,99588.31
2022-12-04T00:28:33.709Z,99573.72
2022-12-04T00:29:15.599Z,99587.22
2022-12-04T00:29:57.429Z,99587.34
2022-12-04T00:30:43.786Z,99582.81
2022-12-04T00:31:27.751Z,99585.44
2022-12-04T00:32:09.684Z,99585.03
2022-12-04T00:32:51.585Z,99546.38
2022-12-04T00:33:33.945Z,99581.31
2022-12-04T00:34:15.655Z,99547.59
2022-12-04T00:34:57.568Z,99556.00
2022-12-04T00:35:39.520Z,99559.44
2022-12-04T00:36:23.910Z,99573.22
2022-12-04T00:37:05.668Z,99572.38
2022-12-04T00:37:47.417Z,99558.19
2022-12-04T00:38:29.613Z,99555.16
2022-12-04T00:39:11.407Z,99560.13
2022-12-04T00:39:53.595Z,99562.59
2022-12-04T00:40:35.587Z,99558.19
2022-12-04T00:41:20.199Z,99558.19
2022-12-04T00:42:01.843Z,99556.25
2022-12-04T00:42:43.636Z,99540.28
2022-12-04T00:43:25.497Z,99554.03
2022-12-04T00:44:07.214Z,99549.06
2022-12-04T00:44:49.133Z,99541.38
2022-12-04T00:45:30.920Z,99538.50
2022-12-04T00:46:13.314Z,99531.59
2022-12-04T00:46:55.100Z,99529.13
2022-12-04T00:47:36.775Z,99528.84
2022-12-04T00:48:18.707Z,99524.56
2022-12-04T00:49:02.607Z,99493.88
2022-12-04T00:49:44.447Z,99513.56
2022-12-04T00:50:26.218Z,99526.47
2022-12-04T00:51:20.892Z,99529.66
2022-12-04T00:52:02.618Z,99502.00
2022-12-04T00:52:44.341Z,99494.72
2022-12-04T00:53:26.022Z,99510.41
2022-12-04T00:54:07.760Z,99526.34
2022-12-04T00:54:49.542Z,99535.16
2022-12-04T00:55:31.292Z,99536.13
2022-12-04T00:56:19.486Z,99542.19
2022-12-04T00:57:01.244Z,99530.38
2022-12-04T00:57:42.939Z,99537.13
2022-12-04T00:58:24.797Z,99551.97
2022-12-04T00:59:06.481Z,99551.25
2022-12-04T00:59:48.297Z,99536.97
2022-12-04T01:00:30.230Z,99529.25
2022-12-04T01:01:18.117Z,99538.59
2022-12-04T01:02:00.004Z,99546.56
2022-12-04T01:02:41.818Z,99525.25
2022-12-04T01:03:23.753Z,99544.22
2022-12-04T01:04:05.725Z,99527.47
2022-12-04T01:04:47.658Z,99548.63
2022-12-04T01:05:29.505Z,99549.75
2022-12-04T01:06:37.131Z,99555.56
2022-12-04T01:07:18.921Z,99557.47
2022-12-04T01:08:00.656Z,99538.50
2022-12-04T01:08:42.439Z,99521.03
2022-12-04T01:09:24.159Z,99552.38
2022-12-04T01:10:08.612Z,99543.28
2022-12-04T01:10:50.497Z,99544.81
2022-12-04T01:11:33.285Z,99542.72
2022-12-04T01:12:20.373Z,99527.31
2022-12-04T01:13:02.605Z,99551.69
2022-12-04T01:13:44.721Z,99556.22
2022-12-04T01:14:26.433Z,99529.66
2022-12-04T01:15:08.708Z,99550.69
2022-12-04T01:15:50.570Z,99562.81
2022-12-04T01:16:37.771Z,99558.56
2022-12-04T01:17:19.512Z,99537.78
2022-12-04T01:18:01.246Z,99569.44
2022-12-04T01:18:42.977Z,99495.13
2022-12-04T01:19:24.788Z,99543.97
2022-12-04T01:20:06.886Z,99569.41
2022-12-04T01:20:50.396Z,99576.72
2022-12-04T01:21:32.345Z,99574.25
2022-12-04T01:22:14.110Z,99571.75
2022-12-04T01:22:55.903Z,99568.34
2022-12-04T01:23:37.656Z,99571.34
2022-12-04T01:24:19.411Z,99552.53
2022-12-04T01:25:01.210Z,99568.72
2022-12-04T01:25:57.143Z,99565.69
2022-12-04T01:26:38.975Z,99561.16
2022-12-04T01:27:20.680Z,99547.78
2022-12-04T01:28:02.398Z,99534.88
2022-12-04T01:28:44.248Z,99571.22
2022-12-04T01:29:26.006Z,99570.91
2022-12-04T01:30:08.199Z,99565.25
2022-12-04T01:31:05.300Z,99561.53
2022-12-04T01:31:47.116Z,99555.06
2022-12-04T01:32:28.972Z,99553.69
2022-12-04T01:33:10.776Z,99549.41
2022-12-04T01:33:53.168Z,99546.50
2022-12-04T01:34:35.965Z,99553.38
2022-12-04T01:35:17.836Z,99550.75
2022-12-04T01:36:01.516Z,99544.72
2022-12-04T01:36:43.165Z,99524.63
2022-12-04T01:37:24.876Z,99543.47
2022-12-04T01:38:06.591Z,99547.75
2022-12-04T01:38:48.431Z,99547.75
2022-12-04T01:39:30.332Z,99544.44
2022-12-04T01:40:17.151Z,99545.28
2022-12-04T01:40:58.927Z,99529.72
2022-12-04T01:41:40.572Z,99539.94
2022-12-04T01:42:22.275Z,99534.16
2022-12-04T01:43:03.905Z,99515.06
2022-12-04T01:43:45.756Z,99526.19
2022-12-04T01:44:29.182Z,99537.63
2022-12-04T01:45:29.332Z,99534.56
2022-12-04T01:46:11.880Z,99532.75
2022-12-04T01:46:55.873Z,99538.56
2022-12-04T01:47:37.597Z,99509.09
2022-12-04T01:48:46.069Z,99498.09
2022-12-04T01:49:43.986Z,99510.06
2022-12-04T01:50:25.724Z,99526.84
2022-12-04T01:51:27.041Z,99505.41
2022-12-04T01:52:14.412Z,99537.31
2022-12-04T01:52:56.152Z,99544.03
2022-12-04T01:53:42.148Z,99543.47
2022-12-04T01:54:32.467Z,99526.28
2022-12-04T01:55:14.156Z,99542.50
2022-12-04T01:55:56.514Z,99519.13
2022-12-04T01:56:45.408Z,99530.66
2022-12-04T01:57:31.329Z,99540.59
2022-12-04T01:58:15.618Z,99518.28
2022-12-04T01:59:01.649Z,99506.72
2022-12-04T01:59:50.512Z,99539.47
2022-12-04T02:00:32.314Z,99513.06
2022-12-04T02:01:14.167Z,99538.19
2022-12-04T02:02:12.018Z,99516.06
2022-12-04T02:02:54.187Z,99511.66
2022-12-04T02:03:37.418Z,99534.63
2022-12-04T02:04:19.939Z,99537.38
2022-12-04T02:05:05.011Z,99540.97
2022-12-04T02:05:46.652Z,99541.09
2022-12-04T02:06:28.373Z,99537.81
2022-12-04T02:07:10.508Z,99539.91
2022-12-04T02:07:57.589Z,99533.41
2022-12-04T02:08:39.646Z,99538.00
2022-12-04T02:09:26.746Z,99511.03
2022-12-04T02:10:10.007Z,99532.75
2022-12-04T02:10:54.491Z,99538.66
2022-12-04T02:11:44.139Z,99533.69
2022-12-04T02:12:53.308Z,99541.28
2022-12-04T02:13:59.451Z,99534.75
2022-12-04T02:15:25.734Z,99544.41
2022-12-04T02:16:14.991Z,99545.81
2022-12-04T02:17:05.001Z,99536.72
2022-12-04T02:18:20.506Z,99546.22
2022-12-04T02:19:05.033Z,99551.22
2022-12-04T02:19:57.109Z,99551.22
2022-12-04T02:20:41.865Z,99543.50
2022-12-04T02:21:43.855Z,99544.84
2022-12-04T02:22:47.983Z,99544.72
2022-12-04T02:23:48.205Z,99545.13
2022-12-04T02:24:55.187Z,99546.66
2022-12-04T02:26:10.619Z,99546.34
2022-12-04T02:27:25.473Z,99522.13
2022-12-04T02:28:09.628Z,99548.69
2022-12-04T02:29:15.658Z,99544.13
2022-12-04T02:30:03.753Z,99546.19
2022-12-04T02:30:47.385Z,99545.22
2022-12-04T02:31:42.876Z,99536.59
2022-12-04T02:32:24.436Z,99552.41
2022-12-04T02:33:09.882Z,99553.91
2022-12-04T02:34:05.604Z,99521.97
2022-12-04T02:34:56.159Z,99554.19
2022-12-04T02:35:44.291Z,99547.81
2022-12-04T02:36:31.533Z,99538.47
2022-12-04T02:37:21.677Z,99544.09
2022-12-04T02:38:17.812Z,99528.69
2022-12-04T02:39:09.871Z,99517.69
2022-12-04T02:39:59.062Z,99542.28
2022-12-04T02:40:56.956Z,99543.41
2022-12-04T02:42:00.038Z,99542.06
2022-12-04T02:42:57.974Z,99525.69
2022-12-04T02:43:45.414Z,99535.47
2022-12-04T02:44:35.174Z,99535.47
2022-12-04T02:45:31.615Z,99526.13
2022-12-04T02:46:16.107Z,99530.78
2022-12-04T02:47:01.307Z,99539.63
2022-12-04T02:47:45.603Z,99524.09
2022-12-04T02:48:32.339Z,99524.75
2022-12-04T02:49:28.145Z,99536.72
2022-12-04T02:50:13.362Z,99526.16
2022-12-04T02:50:58.294Z,99524.50
2022-12-04T02:51:43.874Z,99524.09
2022-12-04T02:52:33.696Z,99521.47
2022-12-04T02:53:20.692Z,99502.47
2022-12-04T02:54:09.488Z,99520.19
2022-12-04T02:54:57.520Z,99517.97
2022-12-04T02:55:43.935Z,99521.94
2022-12-04T02:56:30.383Z,99507.50
2022-12-04T02:57:18.256Z,99510.22
2022-12-04T02:58:05.995Z,99496.75
2022-12-04T02:58:53.311Z,99521.66
2022-12-04T02:59:39.321Z,99483.03
2022-12-04T03:00:22.203Z,99514.78
2022-12-04T03:01:19.572Z,99514.78
2022-12-04T03:02:09.537Z,99511.03
2022-12-04T03:03:08.782Z,99512.28
2022-12-04T03:04:09.279Z,99483.66
2022-12-04T03:04:53.425Z,99506.22
2022-12-04T03:05:53.567Z,99504.16
2022-12-04T03:06:39.280Z,99510.63
2022-12-04T03:07:29.425Z,99517.78
2022-12-04T03:08:17.083Z,99496.34
2022-12-04T03:09:06.292Z,99491.38
2022-12-04T03:09:53.608Z,99509.13
2022-12-04T03:10:41.517Z,99513.53
2022-12-04T03:11:26.428Z,99506.41
2022-12-04T03:12:18.153Z,99510.34
2022-12-04T03:13:06.507Z,99510.66
2022-12-04T03:13:55.486Z,99502.13
2022-12-04T03:14:43.199Z,99512.56
2022-12-04T03:15:37.399Z,99507.47
2022-12-04T03:16:24.296Z,99480.91
2022-12-04T03:17:11.980Z,99502.34
2022-12-04T03:18:09.272Z,99516.38
2022-12-04T03:19:09.124Z,99517.88
2022-12-04T03:19:56.886Z,99511.00
2022-12-04T03:20:39.720Z,99505.53
2022-12-04T03:21:26.675Z,99516.09
2022-12-04T03:22:13.449Z,99512.66
2022-12-04T03:23:03.285Z,99504.69
2022-12-04T03:23:50.828Z,99510.72
2022-12-04T03:24:48.078Z,99484.72
2022-12-04T03:25:36.878Z,99463.00
2022-12-04T03:26:37.029Z,99483.34
2022-12-04T03:27:45.965Z,99487.56
2022-12-04T03:28:38.743Z,99487.75
2022-12-04T03:29:29.500Z,99495.25
2022-12-04T03:30:14.247Z,99497.88
2022-12-04T03:31:03.629Z,99502.94
2022-12-04T03:31:57.719Z,99497.88
2022-12-04T03:32:55.193Z,99500.78
2022-12-04T03:33:48.412Z,99501.75
2022-12-04T03:34:42.453Z,99486.78
2022-12-04T03:35:29.936Z,99507.53
2022-12-04T03:36:21.962Z,99472.59
2022-12-04T03:37:10.669Z,99484.81
2022-12-04T03:38:04.848Z,99506.94
2022-12-04T03:39:11.696Z,99478.66
2022-12-04T03:40:06.417Z,99500.66
2022-12-04T03:41:04.235Z,99511.53
2022-12-04T03:42:01.667Z,99499.69
2022-12-04T03:42:54.419Z,99456.94
2022-12-04T03:43:53.835Z,99498.69
2022-12-04T03:44:35.420Z,99497.06
2022-12-04T03:45:23.545Z,99502.13
2022-12-04T03:46:11.365Z,99503.94
2022-12-04T03:47:00.999Z,99501.31
2022-12-04T03:47:51.600Z,99492.38
2022-12-04T03:48:42.505Z,99502.44
2022-12-04T03:49:45.785Z,99498.84
2022-12-04T03:50:37.183Z,99502.28
2022-12-04T03:51:24.786Z,99497.88
2022-12-04T03:52:24.562Z,99476.28
2022-12-04T03:53:25.431Z,99496.22
2022-12-04T03:54:21.861Z,99498.97
2022-12-04T03:55:32.243Z,99475.59
2022-12-04T03:56:19.064Z,99496.38
2022-12-04T03:57:06.460Z,99464.59
2022-12-04T03:57:51.014Z,99492.09
2022-12-04T03:58:35.813Z,99488.94
2022-12-04T03:59:26.936Z,99481.06
2022-12-04T04:00:14.219Z,99475.88
2022-12-04T04:00:58.186Z,99483.31
2022-12-04T04:01:44.837Z,99460.38
2022-12-04T04:02:33.054Z,99491.19
2022-12-04T04:03:36.919Z,99483.00
2022-12-04T04:04:24.748Z,99465.16
2022-12-04T04:05:09.968Z,99482.09
2022-12-04T04:05:55.945Z,99475.13
2022-12-04T04:06:42.227Z,99488.28
2022-12-04T04:07:35.737Z,99483.88
2022-12-04T04:08:26.694Z,99484.31
2022-12-04T04:09:19.423Z,99474.53
2022-12-04T04:10:11.292Z,99487.47
2022-12-04T04:11:19.490Z,99476.84
2022-12-04T04:12:11.783Z,99442.47
2022-12-04T04:13:20.700Z,99476.13
2022-12-04T04:14:37.391Z,99443.28
2022-12-04T04:15:38.355Z,99444.25
2022-12-04T04:16:43.491Z,99471.34
2022-12-04T04:17:47.755Z,99476.44
2022-12-04T04:18:50.504Z,99471.06
2022-12-04T04:19:53.881Z,99471.56
2022-12-04T04:21:06.263Z,99459.09
2022-12-04T04:22:09.681Z,99468.16
2022-12-04T04:23:13.398Z,99474.22
2022-12-04T04:24:13.838Z,99464.03
2022-12-04T04:25:02.504Z,99464.19
2022-12-04T04:25:45.504Z,99482.97
2022-12-04T04:26:32.679Z,99472.91
2022-12-04T04:27:14.543Z,99480.50
2022-12-04T04:27:58.692Z,99480.03
2022-12-04T04:28:42.101Z,99457.63
2022-12-04T04:29:23.853Z,99475.47
2022-12-04T04:30:07.623Z,99475.34
2022-12-04T04:30:49.307Z,99464.38
2022-12-04T04:31:40.955Z,99477.81
2022-12-04T04:32:31.047Z,99465.97
2022-12-04T04:33:16.827Z,99485.13
2022-12-04T04:34:10.272Z,99485.78
2022-12-04T04:35:05.134Z,99491.69
2022-12-04T04:35:57.726Z,99494.03
2022-12-04T04:37:04.107Z,99494.72
2022-12-04T04:37:57.380Z,99491.00
2022-12-04T04:39:08.134Z,99486.72
2022-12-04T04:39:49.769Z,99489.06
2022-12-04T04:40:39.642Z,99477.00
2022-12-04T04:41:32.984Z,99493.81
2022-12-04T04:42:35.501Z,99492.97
2022-12-04T04:43:32.071Z,99463.81
2022-12-04T04:44:34.985Z,99480.38
2022-12-04T04:45:32.091Z,99468.91
2022-12-04T04:46:31.969Z,99479.19
2022-12-04T04:47:23.763Z,99457.28
2022-12-04T04:48:14.769Z,99493.06
2022-12-04T04:49:00.514Z,99477.25
2022-12-04T04:49:43.301Z,99497.34
2022-12-04T04:50:25.645Z,99501.59
2022-12-04T04:51:07.897Z,99506.84
2022-12-04T04:51:49.745Z,99500.22
2022-12-04T04:52:32.896Z,99496.56
2022-12-04T04:53:22.303Z,99507.00
2022-12-04T04:54:08.493Z,99511.13
2022-12-04T04:54:50.130Z,99504.91
2022-12-04T04:55:34.548Z,99481.34
2022-12-04T04:56:16.517Z,99478.91
2022-12-04T04:56:58.255Z,99508.19
2022-12-04T04:57:39.968Z,99492.63
2022-12-04T04:58:21.748Z,99506.25
2022-12-04T04:59:03.367Z,99505.28
2022-12-04T04:59:44.995Z,99477.25
2022-12-04T05:00:26.695Z,99500.63
2022-12-04T05:01:15.011Z,99514.84
2022-12-04T05:01:56.919Z,99501.75
2022-12-04T05:02:38.808Z,99486.91
2022-12-04T05:03:20.569Z,99477.97
2022-12-04T05:04:04.911Z,99505.75
2022-12-04T05:04:46.584Z,99501.41
2022-12-04T05:05:28.206Z,99505.09
2022-12-04T05:06:10.070Z,99508.38
2022-12-04T05:06:51.739Z,99501.94
2022-12-04T05:07:33.616Z,99489.03
2022-12-04T05:08:15.398Z,99478.56
2022-12-04T05:08:57.151Z,99507.00
2022-12-04T05:09:41.384Z,99507.81
2022-12-04T05:10:23.547Z,99498.22
2022-12-04T05:11:06.006Z,99518.97
2022-12-04T05:11:47.602Z,99514.41
2022-12-04T05:12:29.275Z,99509.69
2022-12-04T05:13:14.181Z,99502.66
2022-12-04T05:13:55.786Z,99485.13
2022-12-04T05:14:37.423Z,99469.97
2022-12-04T05:15:19.084Z,99489.75
2022-12-04T05:16:03.795Z,99502.81
2022-12-04T05:16:45.773Z,99495.41
2022-12-04T05:17:27.445Z,99503.94
2022-12-04T05:18:09.961Z,99483.97
2022-12-04T05:19:10.395Z,99493.47
2022-12-04T05:19:55.689Z,99502.31
2022-12-04T05:20:40.595Z,99494.38
2022-12-04T05:21:22.232Z,99499.88
2022-12-04T05:22:03.911Z,99494.91
2022-12-04T05:22:45.560Z,99504.94
2022-12-04T05:23:27.240Z,99495.28
2022-12-04T05:24:09.737Z,99503.69
2022-12-04T05:24:51.525Z,99504.22
2022-12-04T05:25:33.433Z,99499.50
2022-12-04T05:26:15.059Z,99477.25
2022-12-04T05:26:56.700Z,99504.31
2022-12-04T05:27:38.552Z,99478.59
2022-12-04T05:28:20.246Z,99489.34
2022-12-04T05:29:01.899Z,99480.94
2022-12-04T05:29:43.508Z,99503.06
2022-12-04T05:30:25.179Z,99500.16
2022-12-04T05:31:06.828Z,99503.59
2022-12-04T05:31:48.527Z,99510.63
2022-12-04T05:32:30.597Z,99504.72
2022-12-04T05:33:12.344Z,99501.41
2022-12-04T05:33:54.010Z,99503.19
2022-12-04T05:34:35.876Z,99504.03
2022-12-04T05:35:17.592Z,99500.44
2022-12-04T05:36:05.223Z,99506.78
2022-12-04T05:36:46.886Z,99498.25
2022-12-04T05:37:28.672Z,99496.88
2022-12-04T05:38:10.380Z,99496.72
2022-12-04T05:38:52.072Z,99494.25
2022-12-04T05:39:34.416Z,99480.53
2022-12-04T05:40:16.342Z,99496.50
2022-12-04T05:40:59.566Z,99468.16
2022-12-04T05:41:41.201Z,99497.69
2022-12-04T05:42:22.856Z,99493.47
2022-12-04T05:43:04.518Z,99506.25
2022-12-04T05:43:46.196Z,99503.34
2022-12-04T05:44:27.905Z,99492.09
2022-12-04T05:45:10.148Z,99508.59
2022-12-04T05:45:51.995Z,99505.81
2022-12-04T05:46:33.740Z,99507.47
2022-12-04T05:47:16.745Z,99504.84
2022-12-04T05:47:58.382Z,99498.25
2022-12-04T05:48:40.078Z,99512.44
2022-12-04T05:49:21.791Z,99495.88
2022-12-04T05:50:03.733Z,99474.31
2022-12-04T05:50:45.465Z,99508.53
2022-12-04T05:51:27.225Z,99495.63
2022-12-04T05:52:10.548Z,99506.66
2022-12-04T05:52:52.263Z,99484.16
2022-12-04T05:53:33.977Z,99497.56
2022-12-04T05:54:15.658Z,99468.03
2022-12-04T05:54:57.394Z,99505.41
2022-12-04T05:55:39.078Z,99508.03
2022-12-04T05:56:20.785Z,99515.91
2022-12-04T05:57:02.601Z,99489.91
2022-12-04T05:57:44.249Z,99504.31
2022-12-04T05:58:26.335Z,99513.69
2022-12-04T05:59:08.033Z,99495.69
2022-12-04T05:59:50.921Z,99500.19
2022-12-04T06:00:32.693Z,99502.13
2022-12-04T06:01:20.074Z,99500.91
2022-12-04T06:02:01.817Z,99498.31
2022-12-04T06:02:43.579Z,99498.97
2022-12-04T06:03:25.336Z,99472.44
2022-12-04T06:04:07.563Z,99496.09
2022-12-04T06:04:49.303Z,99498.97
2022-12-04T06:05:32.582Z,99503.94
2022-12-04T06:06:22.130Z,99500.31
2022-12-04T06:07:04.375Z,99502.13
2022-12-04T06:07:46.272Z,99486.31
2022-12-04T06:08:27.965Z,99498.78
2022-12-04T06:09:09.736Z,99499.47
2022-12-04T06:09:51.480Z,99495.56
2022-12-04T06:10:33.101Z,99491.84
2022-12-04T06:11:17.795Z,99459.16
2022-12-04T06:11:59.614Z,99481.13
2022-12-04T06:12:41.259Z,99492.53
2022-12-04T06:13:23.007Z,99484.78
2022-12-04T06:14:07.083Z,99494.84
2022-12-04T06:14:48.805Z,99472.44
2022-12-04T06:15:30.476Z,99494.03
2022-12-04T06:16:17.960Z,99499.25
2022-12-04T06:16:59.621Z,99487.06
2022-12-04T06:17:41.261Z,99490.88
2022-12-04T06:18:22.853Z,99494.31
2022-12-04T06:19:10.140Z,99496.78
2022-12-04T06:19:53.627Z,99493.34
2022-12-04T06:20:35.579Z,99499.56
2022-12-04T06:21:18.546Z,99482.31
2022-12-04T06:22:00.209Z,99482.63
2022-12-04T06:22:41.907Z,99485.69
2022-12-04T06:23:23.956Z,99484.31
2022-12-04T06:24:06.741Z,99487.91
2022-12-04T06:24:48.699Z,99470.38
2022-12-04T06:25:30.447Z,99490.84
2022-12-04T06:26:12.888Z,99492.03
2022-12-04T06:28:00.695Z,99492.66
2022-12-04T06:28:42.508Z,99473.41
2022-12-04T06:29:24.112Z,99483.16
2022-12-04T06:30:06.316Z,99498.81
2022-12-04T06:30:48.008Z,99478.66
2022-12-04T06:31:30.495Z,99502.84
2022-12-04T06:32:16.347Z,99495.81
2022-12-04T06:33:01.307Z,99496.19
2022-12-04T06:33:43.238Z,99488.78
2022-12-04T06:34:24.950Z,99484.22
2022-12-04T06:35:07.051Z,99505.50
2022-12-04T06:35:58.052Z,99502.38
2022-12-04T06:36:39.867Z,99501.38
2022-12-04T06:37:24.135Z,99504.16
2022-12-04T06:38:06.397Z,99483.00
2022-12-04T06:38:49.086Z,99506.91
2022-12-04T06:39:30.784Z,99479.56
2022-12-04T06:40:12.714Z,99508.13
2022-12-04T06:40:54.429Z,99471.84
2022-12-04T06:41:36.126Z,99509.47
2022-12-04T06:42:17.786Z,99475.75
2022-12-04T06:42:59.483Z,99498.56
2022-12-04T06:43:41.837Z,99500.63
2022-12-04T06:44:23.535Z,99504.38
2022-12-04T06:45:06.485Z,99504.38
2022-12-04T06:45:48.487Z,99499.97
2022-12-04T06:46:32.901Z,99487.59
2022-12-04T06:47:14.605Z,99478.66
2022-12-04T06:47:56.250Z,99475.22
2022-12-04T06:48:38.650Z,99503.81
2022-12-04T06:49:22.828Z,99488.94
2022-12-04T06:50:05.111Z,99502.00
2022-12-04T06:50:46.756Z,99500.88
2022-12-04T06:51:34.219Z,99498.91
2022-12-04T06:52:15.884Z,99505.97
2022-12-04T06:52:57.550Z,99474.94
2022-12-04T06:53:39.694Z,99502.44
2022-12-04T06:57:07.078Z,99498.97
2022-12-04T06:57:48.727Z,99477.81
2022-12-04T06:58:30.749Z,99491.69
2022-12-04T06:59:12.450Z,99497.47
2022-12-04T06:59:54.463Z,99496.34
2022-12-04T07:00:36.440Z,99465.56
2022-12-04T07:01:20.563Z,99490.66
2022-12-04T07:02:02.292Z,99502.78
2022-12-04T07:02:44.037Z,99499.06
2022-12-04T07:03:26.837Z,99499.59
2022-12-04T07:04:08.778Z,99498.44
2022-12-04T07:04:55.391Z,99466.53
2022-12-04T07:05:37.063Z,99504.91
2022-12-04T07:06:27.689Z,99498.69
2022-12-04T07:07:09.992Z,99502.16
2022-12-04T07:07:51.741Z,99502.00
2022-12-04T07:08:33.405Z,99500.88
2022-12-04T07:09:17.420Z,99501.38
2022-12-04T07:09:59.181Z,99486.28
2022-12-04T07:10:41.352Z,99496.97
2022-12-04T07:11:23.523Z,99474.72
2022-12-04T07:12:05.743Z,99492.69
2022-12-04T07:12:47.496Z,99505.91
2022-12-04T07:13:29.260Z,99494.59
2022-12-04T07:14:12.094Z,99504.75
2022-12-04T07:14:53.702Z,99494.75
2022-12-04T07:15:37.266Z,99490.41
2022-12-04T07:16:21.586Z,99493.66
2022-12-04T07:17:03.502Z,99498.78
2022-12-04T07:17:45.313Z,99479.66
2022-12-04T07:18:28.010Z,99498.78
2022-12-04T07:19:11.766Z,99503.34
2022-12-04T07:19:53.836Z,99463.25
2022-12-04T07:20:40.540Z,99506.13
2022-12-04T07:21:24.946Z,99489.75
2022-12-04T07:22:08.769Z,99507.09
2022-12-04T07:22:50.518Z,99505.31
2022-12-04T07:23:32.223Z,99517.94
2022-12-04T07:24:17.107Z,99509.13
2022-12-04T07:24:58.788Z,99508.06
2022-12-04T07:25:40.700Z,99506.34
2022-12-04T07:26:23.347Z,99480.34
2022-12-04T07:27:05.062Z,99481.31
2022-12-04T07:27:46.840Z,99514.22
2022-12-04T07:28:28.477Z,99515.31
2022-12-04T07:29:10.712Z,99483.34
2022-12-04T07:29:53.205Z,99478.78
2022-12-04T07:30:38.098Z,99512.72
2022-12-04T07:31:21.699Z,99500.88
2022-12-04T07:32:03.787Z,99505.31
2022-12-04T07:32:45.516Z,99516.00
2022-12-04T07:33:27.234Z,99517.41
2022-12-04T07:34:08.920Z,99502.03
2022-12-04T07:34:51.090Z,99507.97
2022-12-04T07:35:33.312Z,99484.38
2022-12-04T07:36:19.290Z,99513.13
2022-12-04T07:37:00.892Z,99509.00
2022-12-04T07:37:42.577Z,99516.03
2022-12-04T07:38:25.218Z,99501.06
2022-12-04T07:39:06.943Z,99500.59
2022-12-04T07:39:52.067Z,99495.81
2022-12-04T07:40:33.745Z,99516.28
2022-12-04T07:41:16.037Z,99516.97
2022-12-04T07:41:57.663Z,99513.91
2022-12-04T07:42:39.327Z,99513.75
2022-12-04T07:43:20.997Z,99513.47
2022-12-04T07:44:02.804Z,99474.78
2022-12-04T07:44:44.655Z,99510.09
2022-12-04T07:45:26.347Z,99508.81
2022-12-04T07:46:14.392Z,99468.28
2022-12-04T07:46:56.074Z,99517.59
2022-12-04T07:47:37.836Z,99508.59
2022-12-04T07:48:19.577Z,99485.91
2022-12-04T07:49:01.333Z,99509.00
2022-12-04T07:49:43.068Z,99508.31
2022-12-04T07:50:24.897Z,99505.84
2022-12-04T07:51:14.927Z,99480.13
2022-12-04T07:51:56.579Z,99493.16
2022-12-04T07:52:39.744Z,99507.63
2022-12-04T07:53:21.444Z,99511.28
2022-12-04T07:54:04.449Z,99480.66
2022-12-04T07:54:46.646Z,99509.63
2022-12-04T07:55:28.328Z,99514.22
2022-12-04T07:56:11.285Z,99481.78
2022-12-04T07:56:52.933Z,99507.63
2022-12-04T07:57:34.696Z,99473.53
2022-12-04T07:58:16.345Z,99498.09
2022-12-04T07:58:59.405Z,99501.84
2022-12-04T07:59:41.159Z,99496.75
2022-12-04T08:00:22.936Z,99458.84
2022-12-04T08:01:13.408Z,99498.47
2022-12-04T08:01:55.246Z,99482.44
2022-12-04T08:02:37.097Z,99467.06
2022-12-04T08:03:18.768Z,99499.22
2022-12-04T08:04:01.380Z,99510.38
2022-12-04T08:04:43.151Z,99508.44
2022-12-04T08:05:24.962Z,99491.56
2022-12-04T08:06:07.311Z,99519.91
2022-12-04T08:06:49.027Z,99501.19
2022-12-04T08:07:31.688Z,99508.28
2022-12-04T08:08:13.471Z,99495.19
2022-12-04T08:08:55.239Z,99471.66
2022-12-04T08:09:36.910Z,99499.69
2022-12-04T08:10:18.749Z,99489.78
2022-12-04T08:11:00.835Z,99473.75
2022-12-04T08:11:42.675Z,99483.25
2022-12-04T08:12:24.715Z,99478.16
2022-12-04T08:13:07.255Z,99476.84
2022-12-04T08:13:54.556Z,99484.09
2022-12-04T08:14:36.316Z,99503.19
2022-12-04T08:15:18.179Z,99498.63
2022-12-04T08:16:04.303Z,99503.88
2022-12-04T08:16:52.704Z,99484.91
2022-12-04T08:17:34.822Z,99481.06
2022-12-04T08:18:16.957Z,99489.56
2022-12-04T08:19:00.043Z,99478.56
2022-12-04T08:19:41.849Z,99477.03
2022-12-04T08:20:23.508Z,99496.41
2022-12-04T08:21:05.210Z,99507.25
2022-12-04T08:21:46.971Z,99507.09
2022-12-04T08:22:28.633Z,99487.31
2022-12-04T08:23:10.360Z,99496.91
2022-12-04T08:23:54.351Z,99507.00
2022-12-04T08:24:36.126Z,99481.16
2022-12-04T08:25:18.207Z,99508.53
2022-12-04T08:26:00.992Z,99511.66
2022-12-04T08:26:42.703Z,99508.75
2022-12-04T08:27:24.456Z,99473.16
2022-12-04T08:28:06.245Z,99484.03
2022-12-04T08:28:48.539Z,99503.94
2022-12-04T08:29:35.338Z,99487.75
2022-12-04T08:30:17.317Z,99483.78
2022-12-04T08:31:07.339Z,99499.63
2022-12-04T08:31:49.089Z,99502.38
2022-12-04T08:32:30.769Z,99496.75
2022-12-04T08:33:12.465Z,99500.06
2022-12-04T08:33:56.915Z,99500.06
2022-12-04T08:34:38.619Z,99494.94
2022-12-04T08:35:20.370Z,99495.19
2022-12-04T08:36:05.485Z,99470.59
2022-12-04T08:36:47.191Z,99502.09
2022-12-04T08:37:28.944Z,99499.63
2022-12-04T08:38:10.655Z,99479.44
2022-12-04T08:38:52.476Z,99503.88
2022-12-04T08:39:34.263Z,99501.91
2022-12-04T08:40:16.132Z,99477.34
2022-12-04T08:41:01.948Z,99503.41
2022-12-04T08:41:43.639Z,99506.03
2022-12-04T08:42:25.418Z,99503.41
2022-12-04T08:43:07.191Z,99469.19
2022-12-04T08:43:50.129Z,99491.94
2022-12-04T08:44:31.895Z,99500.56
2022-12-04T08:45:13.578Z,99500.56
2022-12-04T08:45:59.676Z,99481.16
2022-12-04T08:46:41.594Z,99497.09
2022-12-04T08:47:23.609Z,99486.56
2022-12-04T08:48:05.683Z,99491.72
2022-12-04T08:48:47.483Z,99469.69
2022-12-04T08:49:29.293Z,99471.50
2022-12-04T08:50:11.161Z,99490.66
2022-12-04T08:50:53.337Z,99492.31
2022-12-04T08:51:35.876Z,99485.06
2022-12-04T08:52:17.613Z,99487.97
2022-12-04T08:52:59.378Z,99498.84
2022-12-04T08:53:41.971Z,99501.31
2022-12-04T08:54:23.742Z,99475.91
2022-12-04T08:55:05.966Z,99510.38
2022-12-04T08:55:48.244Z,99473.50
2022-12-04T08:56:31.261Z,99484.53
2022-12-04T08:57:12.954Z,99516.97
2022-12-04T08:57:54.981Z,99507.31
2022-12-04T08:58:36.922Z,99500.84